createdAt,value
2022-12-03T00:02:14.620Z,0.37
2022-12-03T00:04:41.380Z,0.40
2022-12-03T00:07:08.070Z,0.41
2022-12-03T00:09:34.889Z,0.39
2022-12-03T00:12:01.947Z,0.41
2022-12-03T00:14:28.611Z,0.40
2022-12-03T00:16:55.256Z,0.42
2022-12-03T00:19:21.934Z,0.43
2022-12-03T00:21:48.627Z,0.44
2022-12-03T00:24:15.320Z,0.43
2022-12-03T00:26:42.078Z,0.42
2022-12-03T00:29:08.793Z,0.43
2022-12-03T00:31:35.540Z,0.43
2022-12-03T00:34:02.468Z,0.43
2022-12-03T00:36:29.216Z,0.42
2022-12-03T00:38:56.016Z,0.43
2022-12-03T00:41:22.705Z,0.44
2022-12-03T00:43:49.459Z,0.45
2022-12-03T00:46:21.091Z,0.46
2022-12-03T00:48:48.179Z,0.48
2022-12-03T00:51:14.848Z,0.49
2022-12-03T00:53:41.642Z,0.47
2022-12-03T00:56:08.931Z,0.47
2022-12-03T00:58:36.004Z,0.47
2022-12-03T01:01:02.775Z,0.47
2022-12-03T01:03:29.783Z,0.46
2022-12-03T01:05:56.617Z,0.45
2022-12-03T01:08:23.300Z,0.47
2022-12-03T01:10:50.360Z,0.46
2022-12-03T01:13:17.103Z,0.47
2022-12-03T01:15:43.925Z,0.46
2022-12-03T01:18:10.907Z,0.48
2022-12-03T01:20:38.712Z,0.47
2022-12-03T01:23:05.697Z,0.49
2022-12-03T01:25:32.426Z,0.49
2022-12-03T01:27:59.111Z,0.49
2022-12-03T01:30:25.874Z,0.50
2022-12-03T01:32:52.587Z,0.49
2022-12-03T01:35:19.397Z,0.49
2022-12-03T01:37:46.175Z,0.50
2022-12-03T01:40:16.423Z,0.51
2022-12-03T01:42:43.846Z,0.51
2022-12-03T01:45:22.922Z,0.53
2022-12-03T01:47:49.848Z,0.52
2022-12-03T01:50:27.410Z,0.51
2022-12-03T01:52:55.995Z,0.52
2022-12-03T01:55:25.080Z,0.52
2022-12-03T01:57:54.889Z,0.51
2022-12-03T02:00:27.380Z,0.51
2022-12-03T02:02:56.657Z,0.52
2022-12-03T02:05:30.169Z,0.51
2022-12-03T02:07:58.230Z,0.50
2022-12-03T02:10:35.929Z,0.50
2022-12-03T02:13:06.286Z,0.49
2022-12-03T02:15:33.145Z,0.47
2022-12-03T02:18:00.624Z,0.48
2022-12-03T02:20:27.621Z,0.48
2022-12-03T02:22:57.025Z,0.47
2022-12-03T02:25:27.321Z,0.46
2022-12-03T02:27:55.162Z,0.45
2022-12-03T02:30:24.802Z,0.46
2022-12-03T02:32:52.682Z,0.47
2022-12-03T02:35:22.033Z,0.46
2022-12-03T02:37:52.437Z,0.45
2022-12-03T02:40:21.880Z,0.41
2022-12-03T02:42:50.785Z,0.42
2022-12-03T02:45:17.430Z,0.41
2022-12-03T02:47:47.461Z,0.41
2022-12-03T02:50:17.644Z,0.41
2022-12-03T02:52:46.477Z,0.38
2022-12-03T02:55:15.244Z,0.38
2022-12-03T02:57:45.410Z,0.36
2022-12-03T03:00:13.079Z,0.35
2022-12-03T03:02:41.888Z,0.35
2022-12-03T03:05:11.785Z,0.33
2022-12-03T03:07:39.729Z,0.33
2022-12-03T03:10:09.357Z,0.33
2022-12-03T03:12:39.453Z,0.31
2022-12-03T03:15:08.143Z,0.31
2022-12-03T03:17:35.427Z,0.29
2022-12-03T03:20:03.694Z,0.30
2022-12-03T03:22:38.701Z,0.29
2022-12-03T03:25:08.630Z,0.27
2022-12-03T03:27:35.976Z,0.27
2022-12-03T03:30:03.724Z,0.28
2022-12-03T03:32:31.082Z,0.25
2022-12-03T03:34:58.697Z,0.25
2022-12-03T03:37:26.074Z,0.25
2022-12-03T03:39:52.773Z,0.26
2022-12-03T03:42:19.606Z,0.24
2022-12-03T03:44:48.129Z,0.22
2022-12-03T03:47:15.816Z,0.21
2022-12-03T03:49:42.711Z,0.23
2022-12-03T03:52:11.793Z,0.21
2022-12-03T03:54:39.640Z,0.20
2022-12-03T03:57:06.398Z,0.19
2022-12-03T03:59:33.509Z,0.18
2022-12-03T04:02:00.287Z,0.16
2022-12-03T04:04:28.577Z,0.14
2022-12-03T04:06:55.376Z,0.13
2022-12-03T04:09:22.081Z,0.11
2022-12-03T04:12:07.472Z,0.09
2022-12-03T04:14:34.228Z,0.11
2022-12-03T04:17:01.160Z,0.12
2022-12-03T04:19:27.894Z,0.09
2022-12-03T04:22:12.982Z,0.06
2022-12-03T04:24:39.654Z,0.05
2022-12-03T04:27:24.945Z,0.06
2022-12-03T04:29:51.720Z,0.05
2022-12-03T04:32:37.228Z,0.02
2022-12-03T04:35:23.119Z,0.03
2022-12-03T04:37:49.966Z,0.04
2022-12-03T04:40:35.323Z,0.01
2022-12-03T04:43:02.001Z,0.01
2022-12-03T04:45:28.687Z,0.03
2022-12-03T04:47:55.410Z,0.01
2022-12-03T04:50:22.131Z,0.01
2022-12-03T04:52:48.841Z,0.01
2022-12-03T04:55:15.692Z,0.03
2022-12-03T04:57:42.477Z,0.04
2022-12-03T05:00:09.785Z,0.04
2022-12-03T05:02:36.539Z,0.01
2022-12-03T05:05:03.390Z,0.00
2022-12-03T05:07:30.104Z,0.03
2022-12-03T05:09:56.860Z,0.08
2022-12-03T05:12:23.611Z,0.05
2022-12-03T05:14:50.284Z,0.06
2022-12-03T05:17:17.207Z,0.07
2022-12-03T05:20:02.870Z,0.01
2022-12-03T05:22:29.607Z,-0.02
2022-12-03T05:25:11.372Z,-0.00
2022-12-03T05:27:38.109Z,0.02
2022-12-03T05:30:05.566Z,-0.02
2022-12-03T05:32:32.230Z,-0.03
2022-12-03T05:34:58.864Z,0.00
2022-12-03T05:37:25.545Z,0.01
2022-12-03T05:39:52.460Z,-0.00
2022-12-03T05:42:37.861Z,-0.07
2022-12-03T05:45:05.062Z,-0.02
2022-12-03T05:47:31.677Z,-0.05
2022-12-03T05:49:58.354Z,-0.05
2022-12-03T05:52:25.121Z,-0.02
2022-12-03T05:54:52.071Z,-0.02
2022-12-03T05:57:19.168Z,-0.04
2022-12-03T05:59:45.883Z,-0.04
2022-12-03T06:02:13.398Z,-0.04
2022-12-03T06:04:40.192Z,-0.05
2022-12-03T06:07:12.369Z,-0.06
2022-12-03T06:09:40.698Z,-0.06
2022-12-03T06:12:08.844Z,-0.06
2022-12-03T06:14:35.817Z,-0.05
2022-12-03T06:17:02.922Z,-0.03
2022-12-03T06:19:29.654Z,-0.05
2022-12-03T06:21:56.357Z,-0.01
2022-12-03T06:24:23.029Z,-0.01
2022-12-03T06:26:49.696Z,-0.04
2022-12-03T06:29:16.381Z,-0.01
2022-12-03T06:31:43.169Z,-0.00
2022-12-03T06:34:09.879Z,-0.00
2022-12-03T06:36:36.568Z,0.00
2022-12-03T06:39:03.685Z,0.03
2022-12-03T06:41:30.411Z,-0.00
2022-12-03T06:43:57.105Z,-0.01
2022-12-03T06:46:23.865Z,0.01
2022-12-03T06:48:50.685Z,-0.02
2022-12-03T06:51:17.536Z,0.02
2022-12-03T06:53:44.254Z,0.05
2022-12-03T06:56:10.960Z,0.01
2022-12-03T06:58:37.709Z,0.03
2022-12-03T07:01:04.562Z,-0.02
2022-12-03T07:03:31.170Z,0.06
2022-12-03T07:05:57.878Z,0.07
2022-12-03T07:08:24.592Z,0.09
2022-12-03T07:10:51.324Z,0.06
2022-12-03T07:13:18.010Z,0.03
2022-12-03T07:15:44.683Z,0.02
2022-12-03T07:18:11.381Z,0.00
2022-12-03T07:20:38.308Z,0.07
2022-12-03T07:23:04.937Z,0.03
2022-12-03T07:25:31.576Z,0.05
2022-12-03T07:27:58.301Z,0.01
2022-12-03T07:30:25.793Z,0.01
2022-12-03T07:32:52.593Z,0.07
2022-12-03T07:35:19.634Z,0.03
2022-12-03T07:37:46.773Z,0.01
2022-12-03T07:40:14.025Z,0.02
2022-12-03T07:42:40.681Z,0.01
2022-12-03T07:45:08.124Z,0.03
2022-12-03T07:47:34.884Z,0.03
2022-12-03T07:50:01.601Z,0.00
2022-12-03T07:52:28.317Z,0.05
2022-12-03T07:54:55.190Z,0.05
2022-12-03T07:57:22.105Z,0.10
2022-12-03T07:59:48.814Z,0.06
2022-12-03T08:02:21.021Z,0.02
2022-12-03T08:04:48.366Z,0.05
2022-12-03T08:07:15.053Z,0.02
2022-12-03T08:09:42.220Z,0.05
2022-12-03T08:12:24.080Z,0.07
2022-12-03T08:14:51.161Z,0.05
2022-12-03T08:17:19.911Z,0.08
2022-12-03T08:19:47.553Z,0.10
2022-12-03T08:22:15.802Z,0.10
2022-12-03T08:24:43.983Z,0.08
2022-12-03T08:27:19.170Z,0.08
2022-12-03T08:29:46.644Z,0.09
2022-12-03T08:32:13.911Z,0.12
2022-12-03T08:34:43.301Z,0.11
2022-12-03T08:37:19.536Z,0.13
2022-12-03T08:39:53.803Z,0.13
2022-12-03T08:42:41.835Z,0.13
2022-12-03T08:45:40.293Z,0.15
2022-12-03T08:48:32.943Z,0.15
2022-12-03T08:51:25.375Z,0.16
2022-12-03T08:54:01.856Z,0.18
2022-12-03T08:56:30.716Z,0.16
2022-12-03T08:59:17.380Z,0.20
2022-12-03T09:01:45.907Z,0.21
2022-12-03T09:04:21.800Z,0.22
2022-12-03T09:06:49.172Z,0.23
2022-12-03T09:09:16.260Z,0.23
2022-12-03T09:11:45.826Z,0.24
2022-12-03T09:14:18.362Z,0.26
2022-12-03T09:16:45.730Z,0.24
2022-12-03T09:19:12.506Z,0.31
2022-12-03T09:21:39.180Z,0.30
2022-12-03T09:24:06.201Z,0.28
2022-12-03T09:26:32.947Z,0.30
2022-12-03T09:28:59.696Z,0.32
2022-12-03T09:31:26.493Z,0.24
2022-12-03T09:33:53.248Z,0.27
2022-12-03T09:36:19.993Z,0.27
2022-12-03T09:38:48.243Z,0.31
2022-12-03T09:41:15.096Z,0.26
2022-12-03T09:46:29.986Z,0.31
2022-12-03T09:48:56.859Z,0.35
2022-12-03T09:51:30.265Z,0.32
2022-12-03T09:53:59.588Z,0.33
2022-12-03T09:56:26.611Z,0.36
2022-12-03T09:58:53.317Z,0.36
2022-12-03T10:01:21.377Z,0.35
2022-12-03T10:03:50.862Z,0.33
2022-12-03T10:06:23.278Z,0.33
2022-12-03T10:08:53.613Z,0.41
2022-12-03T10:11:22.572Z,0.45
2022-12-03T10:13:52.640Z,0.39
2022-12-03T10:16:20.942Z,0.38
2022-12-03T10:18:53.393Z,0.39
2022-12-03T10:21:20.042Z,0.38
2022-12-03T10:23:55.124Z,0.41
2022-12-03T10:26:39.283Z,0.43
2022-12-03T10:29:12.058Z,0.49
2022-12-03T10:31:38.757Z,0.55
2022-12-03T10:34:05.431Z,0.47
2022-12-03T10:36:32.172Z,0.37
2022-12-03T10:39:16.505Z,0.49
2022-12-03T10:41:44.539Z,0.48
2022-12-03T10:44:22.343Z,0.46
2022-12-03T10:47:07.760Z,0.46
2022-12-03T10:49:34.846Z,0.53
2022-12-03T10:52:02.266Z,0.55
2022-12-03T10:54:30.996Z,0.59
2022-12-03T10:57:00.253Z,0.57
2022-12-03T10:59:32.026Z,0.59
2022-12-03T11:01:59.095Z,0.64
2022-12-03T11:04:33.369Z,0.63
2022-12-03T11:07:03.320Z,0.64
2022-12-03T11:09:32.694Z,0.65
2022-12-03T11:12:07.304Z,0.62
2022-12-03T11:14:48.912Z,0.61
2022-12-03T11:17:46.490Z,0.66
2022-12-03T11:20:25.085Z,0.70
2022-12-03T11:22:53.774Z,0.60
2022-12-03T11:25:29.262Z,0.65
2022-12-03T11:28:14.249Z,0.59
2022-12-03T11:30:50.730Z,0.69
2022-12-03T11:33:30.435Z,0.70
2022-12-03T11:36:03.847Z,0.68
2022-12-03T11:38:52.171Z,0.64
2022-12-03T11:41:29.297Z,0.65
2022-12-03T11:43:58.604Z,0.68
2022-12-03T11:46:37.607Z,0.68
2022-12-03T11:49:27.254Z,0.69
2022-12-03T11:51:54.226Z,0.66
2022-12-03T11:54:22.885Z,0.61
2022-12-03T11:56:50.934Z,0.63
2022-12-03T11:59:18.357Z,0.61
2022-12-03T12:01:45.596Z,0.64
2022-12-03T12:04:33.891Z,0.72
2022-12-03T12:07:01.591Z,0.72
2022-12-03T12:09:56.316Z,0.71
2022-12-03T12:12:31.885Z,0.66
2022-12-03T12:14:59.244Z,0.66
2022-12-03T12:17:36.855Z,0.67
2022-12-03T12:20:26.295Z,0.72
2022-12-03T12:22:54.684Z,0.68
2022-12-03T12:25:30.512Z,0.70
2022-12-03T12:27:57.620Z,0.72
2022-12-03T12:30:24.356Z,0.80
2022-12-03T12:33:08.446Z,0.74
2022-12-03T12:35:36.879Z,0.70
2022-12-03T12:38:06.530Z,0.72
2022-12-03T12:40:36.328Z,0.73
2022-12-03T12:43:32.633Z,0.73
2022-12-03T12:46:45.332Z,0.79
2022-12-03T12:48:59.965Z,0.72
2022-12-03T12:51:26.788Z,0.74
2022-12-03T12:53:53.928Z,0.73
2022-12-03T12:56:26.823Z,0.77
2022-12-03T12:58:54.415Z,0.81
2022-12-03T13:01:22.549Z,0.84
2022-12-03T13:03:51.971Z,0.75
2022-12-03T13:06:28.291Z,0.77
2022-12-03T13:08:55.335Z,0.79
2022-12-03T13:11:32.092Z,0.73
2022-12-03T13:13:58.713Z,0.72
2022-12-03T13:16:31.975Z,0.74
2022-12-03T13:19:00.259Z,0.75
2022-12-03T13:21:45.459Z,0.82
2022-12-03T13:24:33.535Z,0.76
2022-12-03T13:27:05.503Z,0.76
2022-12-03T13:29:32.193Z,0.80
2022-12-03T13:32:01.711Z,0.82
2022-12-03T13:34:33.447Z,0.71
2022-12-03T13:37:01.357Z,0.72
2022-12-03T13:39:35.192Z,0.70
2022-12-03T13:42:41.545Z,0.66
2022-12-03T13:45:14.050Z,0.70
2022-12-03T13:47:43.372Z,0.76
2022-12-03T13:50:28.971Z,0.71
2022-12-03T13:53:23.764Z,0.77
2022-12-03T13:56:16.335Z,0.74
2022-12-03T13:58:43.008Z,0.73
2022-12-03T14:01:09.696Z,0.67
2022-12-03T14:03:36.418Z,0.62
2022-12-03T14:06:03.136Z,0.69
2022-12-03T14:08:29.896Z,0.72
2022-12-03T14:11:00.351Z,0.67
2022-12-03T14:13:27.755Z,0.69
2022-12-03T14:15:54.487Z,0.70
2022-12-03T14:18:28.217Z,0.68
2022-12-03T14:21:01.506Z,0.69
2022-12-03T14:23:28.523Z,0.62
2022-12-03T14:26:04.058Z,0.65
2022-12-03T14:28:30.725Z,0.66
2022-12-03T14:30:57.405Z,0.62
2022-12-03T14:33:28.069Z,0.67
2022-12-03T14:35:56.091Z,0.61
2022-12-03T14:38:26.917Z,0.59
2022-12-03T14:40:53.623Z,0.60
2022-12-03T14:43:34.103Z,0.55
2022-12-03T14:46:25.115Z,0.54
2022-12-03T14:48:55.267Z,0.52
2022-12-03T14:51:23.544Z,0.52
2022-12-03T14:53:51.674Z,0.49
2022-12-03T14:56:22.421Z,0.47
2022-12-03T14:58:49.312Z,0.49
2022-12-03T15:01:16.192Z,0.48
2022-12-03T15:03:42.983Z,0.45
2022-12-03T15:06:09.667Z,0.46
2022-12-03T15:08:36.376Z,0.45
2022-12-03T15:11:03.418Z,0.46
2022-12-03T15:13:51.909Z,0.42
2022-12-03T15:16:19.110Z,0.44
2022-12-03T15:18:46.142Z,0.41
2022-12-03T15:21:14.274Z,0.44
2022-12-03T15:23:42.756Z,0.44
2022-12-03T15:26:09.672Z,0.43
2022-12-03T15:28:36.520Z,0.45
2022-12-03T15:31:03.430Z,0.42
2022-12-03T15:33:30.105Z,0.41
2022-12-03T15:35:59.149Z,0.39
2022-12-03T15:38:25.829Z,0.38
2022-12-03T15:40:52.483Z,0.40
2022-12-03T15:43:19.154Z,0.37
2022-12-03T15:45:46.364Z,0.41
2022-12-03T15:48:13.920Z,0.39
2022-12-03T15:50:40.735Z,0.37
2022-12-03T15:53:07.384Z,0.41
2022-12-03T15:55:34.024Z,0.36
2022-12-03T15:58:00.694Z,0.38
2022-12-03T16:00:27.327Z,0.35
2022-12-03T16:02:54.074Z,0.36
2022-12-03T16:05:20.987Z,0.41
2022-12-03T16:07:47.642Z,0.37
2022-12-03T16:10:16.845Z,0.37
2022-12-03T16:12:50.965Z,0.37
2022-12-03T16:15:22.138Z,0.37
2022-12-03T16:17:51.914Z,0.35
2022-12-03T16:20:25.156Z,0.34
2022-12-03T16:23:27.470Z,0.37
2022-12-03T16:25:57.036Z,0.39
2022-12-03T16:28:25.140Z,0.36
2022-12-03T16:31:04.021Z,0.36
2022-12-03T16:33:33.690Z,0.38
2022-12-03T16:36:27.035Z,0.33
2022-12-03T16:39:28.898Z,0.34
2022-12-03T16:42:08.002Z,0.33
2022-12-03T16:45:12.646Z,0.32
2022-12-03T16:47:42.243Z,0.35
2022-12-03T16:50:13.012Z,0.38
2022-12-03T16:52:47.225Z,0.33
2022-12-03T16:55:27.134Z,0.33
2022-12-03T16:57:54.956Z,0.33
2022-12-03T17:00:22.071Z,0.31
2022-12-03T17:02:49.586Z,0.32
2022-12-03T17:05:16.450Z,0.29
2022-12-03T17:07:43.196Z,0.32
2022-12-03T17:10:10.541Z,0.32
2022-12-03T17:13:07.203Z,0.31
2022-12-03T17:15:24.783Z,0.31
2022-12-03T17:17:53.223Z,0.29
2022-12-03T17:20:20.112Z,0.28
2022-12-03T17:22:46.804Z,0.27
2022-12-03T17:25:13.573Z,0.31
2022-12-03T17:27:45.025Z,0.28
2022-12-03T17:30:13.059Z,0.28
2022-12-03T17:32:40.238Z,0.31
2022-12-03T17:35:07.669Z,0.30
2022-12-03T17:37:34.498Z,0.30
2022-12-03T17:40:01.229Z,0.29
2022-12-03T17:42:27.952Z,0.28
2022-12-03T17:44:54.628Z,0.26
2022-12-03T17:47:24.400Z,0.25
2022-12-03T17:49:51.138Z,0.27
2022-12-03T17:52:17.850Z,0.26
2022-12-03T17:55:09.245Z,0.27
2022-12-03T17:57:31.229Z,0.25
2022-12-03T17:59:57.971Z,0.24
2022-12-03T18:02:24.683Z,0.25
2022-12-03T18:04:51.430Z,0.24
2022-12-03T18:07:18.125Z,0.24
2022-12-03T18:09:44.796Z,0.24
2022-12-03T18:12:11.513Z,0.24
2022-12-03T18:14:38.301Z,0.23
2022-12-03T18:17:05.132Z,0.24
2022-12-03T18:19:31.827Z,0.24
2022-12-03T18:21:58.640Z,0.25
2022-12-03T18:24:25.686Z,0.25
2022-12-03T18:26:52.537Z,0.26
2022-12-03T18:29:19.220Z,0.26
2022-12-03T18:31:46.193Z,0.24
2022-12-03T18:34:13.063Z,0.23
2022-12-03T18:36:39.922Z,0.24
2022-12-03T18:39:09.460Z,0.25
2022-12-03T18:41:36.980Z,0.25
2022-12-03T18:44:07.100Z,0.22
2022-12-03T18:46:53.048Z,0.23
2022-12-03T18:49:20.529Z,0.22
2022-12-03T18:51:48.432Z,0.24
2022-12-03T18:54:15.730Z,0.19
2022-12-03T18:56:42.522Z,0.21
2022-12-03T18:59:09.395Z,0.21
2022-12-03T19:01:36.302Z,0.17
2022-12-03T19:04:03.640Z,0.22
2022-12-03T19:06:30.692Z,0.21
2022-12-03T19:08:57.619Z,0.20
2022-12-03T19:11:24.465Z,0.20
2022-12-03T19:13:51.956Z,0.21
2022-12-03T19:16:19.315Z,0.19
2022-12-03T19:18:46.066Z,0.17
2022-12-03T19:21:15.525Z,0.19
2022-12-03T19:24:04.322Z,0.23
2022-12-03T19:26:30.315Z,0.20
2022-12-03T19:28:57.081Z,0.21
2022-12-03T19:31:23.999Z,0.19
2022-12-03T19:33:51.931Z,0.20
2022-12-03T19:36:22.229Z,0.23
2022-12-03T19:38:56.638Z,0.19
2022-12-03T19:41:26.859Z,0.22
2022-12-03T19:43:55.440Z,0.22
2022-12-03T19:46:24.122Z,0.21
2022-12-03T19:48:51.477Z,0.21
2022-12-03T19:51:34.049Z,0.20
2022-12-03T19:54:02.294Z,0.20
2022-12-03T19:56:30.515Z,0.20
2022-12-03T19:58:58.044Z,0.22
2022-12-03T20:01:27.150Z,0.19
2022-12-03T20:03:55.872Z,0.20
2022-12-03T20:06:25.713Z,0.19
2022-12-03T20:09:01.420Z,0.21
2022-12-03T20:11:31.344Z,0.20
2022-12-03T20:14:01.058Z,0.21
2022-12-03T20:16:28.424Z,0.21
2022-12-03T20:19:01.383Z,0.17
2022-12-03T20:21:30.797Z,0.20
2022-12-03T20:23:57.727Z,0.22
2022-12-03T20:26:24.980Z,0.21
2022-12-03T20:28:54.405Z,0.20
2022-12-03T20:31:23.455Z,0.23
2022-12-03T20:33:54.256Z,0.20
2022-12-03T20:36:22.836Z,0.22
2022-12-03T20:38:57.518Z,0.25
2022-12-03T20:41:24.613Z,0.22
2022-12-03T20:43:53.738Z,0.22
2022-12-03T20:46:25.572Z,0.19
2022-12-03T20:48:54.133Z,0.20
2022-12-03T20:51:23.925Z,0.22
2022-12-03T20:53:50.876Z,0.24
2022-12-03T20:56:23.364Z,0.21
2022-12-03T20:58:50.222Z,0.22
2022-12-03T21:01:20.626Z,0.23
2022-12-03T21:03:47.894Z,0.24
2022-12-03T21:06:15.785Z,0.23
2022-12-03T21:08:43.814Z,0.27
2022-12-03T21:11:17.384Z,0.25
2022-12-03T21:13:45.013Z,0.22
2022-12-03T21:16:14.513Z,0.24
2022-12-03T21:18:41.773Z,0.24
2022-12-03T21:21:10.409Z,0.23
2022-12-03T21:23:37.132Z,0.23
2022-12-03T21:26:06.374Z,0.25
2022-12-03T21:28:33.505Z,0.27
2022-12-03T21:31:07.285Z,0.24
2022-12-03T21:33:34.799Z,0.26
2022-12-03T21:36:02.441Z,0.25
2022-12-03T21:38:30.155Z,0.25
2022-12-03T21:40:57.776Z,0.26
2022-12-03T21:43:24.787Z,0.25
2022-12-03T21:45:52.048Z,0.26
2022-12-03T21:48:19.294Z,0.25
2022-12-03T21:50:46.807Z,0.30
2022-12-03T21:53:13.546Z,0.26
2022-12-03T21:55:40.870Z,0.27
2022-12-03T21:58:08.739Z,0.24
2022-12-03T22:00:35.647Z,0.24
2022-12-03T22:03:02.489Z,0.27
2022-12-03T22:05:29.199Z,0.26
2022-12-03T22:07:56.060Z,0.27
2022-12-03T22:10:22.905Z,0.24
2022-12-03T22:12:49.557Z,0.25
2022-12-03T22:15:19.098Z,0.22
2022-12-03T22:17:46.847Z,0.23
2022-12-03T22:20:13.906Z,0.25
2022-12-03T22:22:40.960Z,0.24
2022-12-03T22:25:08.084Z,0.25
2022-12-03T22:27:35.072Z,0.24
2022-12-03T22:30:02.136Z,0.25
2022-12-03T22:32:28.798Z,0.25
2022-12-03T22:34:55.476Z,0.25
2022-12-03T22:37:22.177Z,0.24
2022-12-03T22:39:48.920Z,0.25
2022-12-03T22:42:15.617Z,0.23
2022-12-03T22:44:42.306Z,0.23
2022-12-03T22:47:08.998Z,0.23
2022-12-03T22:49:35.709Z,0.24
2022-12-03T22:52:02.422Z,0.24
2022-12-03T22:54:29.123Z,0.22
2022-12-03T22:56:55.812Z,0.24
2022-12-03T22:59:22.549Z,0.20
2022-12-03T23:01:49.341Z,0.20
2022-12-03T23:04:16.222Z,0.21
2022-12-03T23:06:43.680Z,0.20
2022-12-03T23:09:10.746Z,0.22
2022-12-03T23:11:37.791Z,0.23
2022-12-03T23:14:04.776Z,0.21
2022-12-03T23:16:33.275Z,0.22
2022-12-03T23:19:01.254Z,0.19
2022-12-03T23:21:30.735Z,0.20
2022-12-03T23:24:02.574Z,0.20
2022-12-03T23:26:29.683Z,0.18
2022-12-03T23:28:56.446Z,0.18
2022-12-03T23:31:26.322Z,0.17
2022-12-03T23:33:53.994Z,0.19
2022-12-03T23:36:22.050Z,0.15
2022-12-03T23:38:48.764Z,0.16
2022-12-03T23:41:19.541Z,0.17
2022-12-03T23:43:46.918Z,0.17
2022-12-03T23:46:16.350Z,0.18
2022-12-03T23:48:43.666Z,0.16
2022-12-03T23:51:13.374Z,0.18
2022-12-03T23:53:40.566Z,0.17
2022-12-03T23:56:09.258Z,0.21
2022-12-03T23:58:36.248Z,0.18
